createdAt,value
2023-05-11T00:00:46.379Z,8.50
2023-05-11T00:03:16.000Z,6.60
2023-05-11T00:05:48.442Z,8.10
2023-05-11T00:08:17.246Z,7.50
2023-05-11T00:10:49.022Z,7.80
2023-05-11T00:13:17.904Z,7.30
2023-05-11T00:15:46.272Z,7.40
2023-05-11T00:18:14.411Z,7.80
2023-05-11T00:20:42.912Z,6.40
2023-05-11T00:23:11.126Z,7.00
2023-05-11T00:25:39.529Z,11.50
2023-05-11T00:28:07.940Z,7.70
2023-05-11T00:30:36.167Z,8.40
2023-05-11T00:33:04.490Z,5.90
2023-05-11T00:35:33.014Z,8.60
2023-05-11T00:38:01.377Z,10.80
2023-05-11T00:40:31.935Z,9.20
2023-05-11T00:43:00.034Z,8.10
2023-05-11T00:45:28.590Z,7.50
2023-05-11T00:47:56.959Z,11.00
2023-05-11T00:50:25.775Z,7.90
2023-05-11T00:52:55.271Z,6.80
2023-05-11T00:55:23.545Z,11.00
2023-05-11T00:57:51.722Z,6.30
2023-05-11T01:00:20.268Z,6.10
2023-05-11T01:02:49.130Z,10.80
2023-05-11T01:05:17.724Z,8.60
2023-05-11T01:08:13.658Z,9.30
2023-05-11T01:10:53.784Z,6.60
2023-05-11T01:13:33.648Z,8.40
2023-05-11T01:16:09.314Z,6.80
2023-05-11T01:19:11.666Z,8.20
2023-05-11T01:21:41.306Z,6.70
2023-05-11T01:24:24.554Z,10.00
2023-05-11T01:27:19.427Z,6.20
2023-05-11T01:30:15.790Z,5.80
2023-05-11T01:32:46.340Z,5.70
2023-05-11T01:35:20.014Z,7.10
2023-05-11T01:37:55.634Z,5.80
2023-05-11T01:40:27.962Z,8.00
2023-05-11T01:43:14.357Z,8.00
2023-05-11T01:45:49.745Z,9.90
2023-05-11T01:48:23.946Z,7.90
2023-05-11T01:50:54.153Z,9.60
2023-05-11T01:53:24.038Z,5.30
2023-05-11T01:55:54.463Z,7.80
2023-05-11T01:58:24.534Z,7.10
2023-05-11T02:00:55.436Z,7.10
2023-05-11T02:03:26.070Z,7.50
2023-05-11T02:05:57.484Z,8.60
2023-05-11T02:08:27.370Z,8.00
2023-05-11T02:10:58.014Z,6.50
2023-05-11T02:13:28.752Z,7.30
2023-05-11T02:15:59.229Z,8.80
2023-05-11T02:18:29.126Z,5.80
2023-05-11T02:21:00.447Z,6.10
2023-05-11T02:23:32.163Z,8.90
2023-05-11T02:26:02.861Z,8.70
2023-05-11T02:28:31.839Z,9.90
2023-05-11T02:31:05.695Z,5.90
2023-05-11T02:33:50.737Z,6.90
2023-05-11T02:36:28.414Z,8.60
2023-05-11T02:39:04.475Z,7.00
2023-05-11T02:41:38.454Z,7.10
2023-05-11T02:44:11.791Z,9.60
2023-05-11T02:46:41.078Z,9.10
2023-05-11T02:49:11.134Z,9.20
2023-05-11T02:51:43.611Z,8.60
2023-05-11T02:54:13.406Z,6.80
2023-05-11T02:56:45.922Z,10.00
2023-05-11T02:59:15.785Z,8.80
2023-05-11T03:01:45.266Z,11.70
2023-05-11T03:04:13.930Z,7.30
2023-05-11T03:06:42.787Z,7.70
2023-05-11T03:09:12.189Z,7.90
2023-05-11T03:11:45.013Z,7.70
2023-05-11T03:14:14.224Z,9.90
2023-05-11T03:16:43.130Z,8.60
2023-05-11T03:19:13.376Z,9.30
2023-05-11T03:21:42.470Z,8.20
2023-05-11T03:24:12.354Z,10.50
2023-05-11T03:26:43.660Z,8.00
2023-05-11T03:29:13.711Z,10.00
2023-05-11T03:31:41.990Z,10.70
2023-05-11T03:34:10.310Z,9.00
2023-05-11T03:36:40.933Z,13.30
2023-05-11T03:39:12.603Z,7.40
2023-05-11T03:41:41.817Z,7.60
2023-05-11T03:44:12.362Z,9.00
2023-05-11T03:46:44.627Z,10.60
2023-05-11T03:49:13.851Z,9.10
2023-05-11T03:51:44.509Z,7.90
2023-05-11T03:54:13.397Z,11.10
2023-05-11T03:56:41.593Z,8.30
2023-05-11T03:59:14.681Z,6.80
2023-05-11T04:01:43.630Z,14.80
2023-05-11T04:04:12.342Z,10.70
2023-05-11T04:06:41.020Z,6.20
2023-05-11T04:09:16.900Z,7.40
2023-05-11T04:11:45.096Z,7.10
2023-05-11T04:14:13.466Z,13.10
2023-05-11T04:16:41.679Z,9.00
2023-05-11T04:19:10.754Z,7.80
2023-05-11T04:21:38.977Z,6.20
2023-05-11T04:24:07.225Z,9.70
2023-05-11T04:26:35.468Z,8.50
2023-05-11T04:29:05.202Z,7.80
2023-05-11T04:31:33.281Z,12.40
2023-05-11T04:34:03.996Z,8.90
2023-05-11T04:36:33.138Z,12.60
2023-05-11T04:39:01.334Z,9.30
2023-05-11T04:41:29.709Z,9.60
2023-05-11T04:44:00.038Z,9.50
2023-05-11T04:46:28.683Z,13.30
2023-05-11T04:48:57.185Z,10.70
2023-05-11T04:51:25.416Z,10.10
2023-05-11T04:53:53.591Z,14.20
2023-05-11T04:56:22.099Z,7.70
2023-05-11T04:58:51.464Z,8.10
2023-05-11T05:01:19.919Z,7.70
2023-05-11T05:03:49.930Z,7.40
2023-05-11T05:06:18.867Z,10.00
2023-05-11T05:08:47.064Z,9.30
2023-05-11T05:11:15.742Z,8.00
2023-05-11T05:13:44.562Z,13.00
2023-05-11T05:16:12.812Z,9.40
2023-05-11T05:18:40.976Z,6.70
2023-05-11T05:21:09.309Z,9.60
2023-05-11T05:23:37.432Z,6.80
2023-05-11T05:26:05.766Z,8.50
2023-05-11T05:28:36.173Z,6.00
2023-05-11T05:31:05.941Z,8.00
2023-05-11T05:33:34.262Z,6.40
2023-05-11T05:36:02.994Z,9.50
2023-05-11T05:38:31.461Z,9.90
2023-05-11T05:41:00.157Z,8.70
2023-05-11T05:43:31.031Z,11.90
2023-05-11T05:45:59.732Z,8.80
2023-05-11T05:48:30.129Z,17.60
2023-05-11T05:51:00.381Z,9.10
2023-05-11T05:53:29.304Z,9.00
2023-05-11T05:55:57.463Z,7.40
2023-05-11T05:58:25.604Z,6.70
2023-05-11T06:00:53.822Z,10.70
2023-05-11T06:03:22.074Z,6.70
2023-05-11T06:05:50.664Z,7.70
2023-05-11T06:08:18.979Z,7.40
2023-05-11T06:10:48.368Z,5.90
2023-05-11T06:13:16.939Z,16.20
2023-05-11T06:15:45.421Z,6.40
2023-05-11T06:18:19.632Z,7.60
2023-05-11T06:20:47.903Z,7.30
2023-05-11T06:23:16.929Z,5.80
2023-05-11T06:25:45.746Z,7.60
2023-05-11T06:28:14.501Z,7.40
2023-05-11T06:30:42.782Z,6.20
2023-05-11T06:33:11.282Z,6.60
2023-05-11T06:35:40.125Z,10.60
2023-05-11T06:38:10.256Z,5.60
2023-05-11T06:40:38.520Z,6.50
2023-05-11T06:43:09.740Z,13.00
2023-05-11T06:45:46.224Z,8.30
2023-05-11T06:48:14.458Z,8.60
2023-05-11T06:50:42.685Z,5.60
2023-05-11T06:53:14.356Z,6.70
2023-05-11T06:55:42.889Z,7.00
2023-05-11T06:58:14.295Z,6.80
2023-05-11T07:00:42.562Z,5.00
2023-05-11T07:03:11.084Z,8.40
2023-05-11T07:05:40.376Z,4.30
2023-05-11T07:08:09.908Z,4.00
2023-05-11T07:10:38.104Z,10.30
2023-05-11T07:13:06.262Z,5.50
2023-05-11T07:15:35.035Z,6.30
2023-05-11T07:18:03.168Z,3.80
2023-05-11T07:20:31.341Z,3.30
2023-05-11T07:22:59.630Z,2.60
2023-05-11T07:25:28.357Z,5.60
2023-05-11T07:27:56.745Z,3.90
2023-05-11T07:30:25.928Z,4.10
2023-05-11T07:32:54.470Z,5.60
2023-05-11T07:35:24.112Z,5.90
2023-05-11T07:37:52.682Z,3.50
2023-05-11T07:40:21.366Z,3.10
2023-05-11T07:42:49.900Z,4.00
2023-05-11T07:45:18.134Z,2.80
2023-05-11T07:47:46.360Z,3.80
2023-05-11T07:50:14.705Z,2.60
2023-05-11T07:52:42.912Z,3.70
2023-05-11T07:55:10.992Z,4.70
2023-05-11T07:57:39.190Z,6.20
2023-05-11T08:00:08.374Z,4.50
2023-05-11T08:02:45.279Z,2.60
2023-05-11T08:05:14.022Z,3.40
2023-05-11T08:07:42.181Z,7.90
2023-05-11T08:10:10.756Z,8.50
2023-05-11T08:12:39.177Z,2.70
2023-05-11T08:15:07.727Z,6.30
2023-05-11T08:17:36.885Z,3.90
2023-05-11T08:20:06.859Z,2.90
2023-05-11T08:22:35.378Z,2.80
2023-05-11T08:25:04.054Z,5.40
2023-05-11T08:27:32.243Z,3.50
2023-05-11T08:30:01.247Z,2.20
2023-05-11T08:32:29.836Z,2.70
2023-05-11T08:34:58.423Z,1.70
2023-05-11T08:37:26.815Z,3.70
2023-05-11T08:39:54.917Z,6.70
2023-05-11T08:42:25.391Z,3.80
2023-05-11T08:44:59.581Z,3.20
2023-05-11T08:47:28.432Z,3.80
2023-05-11T08:49:58.541Z,2.40
2023-05-11T08:52:28.246Z,4.20
2023-05-11T08:54:56.561Z,2.80
2023-05-11T08:57:27.404Z,4.40
2023-05-11T08:59:55.679Z,2.10
2023-05-11T09:02:25.552Z,8.70
2023-05-11T09:04:54.753Z,5.30
2023-05-11T09:07:24.926Z,2.60
2023-05-11T09:09:53.128Z,3.60
2023-05-11T09:12:21.408Z,6.20
2023-05-11T09:14:49.687Z,6.40
2023-05-11T09:17:17.879Z,2.90
2023-05-11T09:20:15.820Z,5.60
2023-05-11T09:22:46.606Z,4.00
2023-05-11T09:25:17.885Z,3.90
2023-05-11T09:27:47.598Z,4.70
2023-05-11T09:30:23.317Z,3.30
2023-05-11T09:33:00.148Z,4.10
2023-05-11T09:35:35.619Z,3.00
2023-05-11T09:38:12.479Z,4.20
2023-05-11T09:41:03.385Z,7.10
2023-05-11T09:43:31.558Z,2.90
2023-05-11T09:46:07.572Z,4.40
2023-05-11T09:48:36.099Z,6.40
2023-05-11T09:51:08.412Z,3.20
2023-05-11T09:53:43.037Z,2.50
2023-05-11T09:56:16.120Z,3.90
2023-05-11T09:58:49.589Z,5.30
2023-05-11T10:01:29.645Z,2.80
2023-05-11T10:04:09.565Z,7.00
2023-05-11T10:09:16.233Z,5.80
2023-05-11T10:11:46.325Z,4.10
2023-05-11T10:14:15.070Z,3.60
2023-05-11T10:16:44.285Z,5.70
2023-05-11T10:19:13.849Z,5.80
2023-05-11T10:21:42.490Z,3.00
2023-05-11T10:24:11.654Z,1.80
2023-05-11T10:26:40.314Z,5.80
2023-05-11T10:29:09.885Z,3.70
2023-05-11T10:31:38.676Z,2.20
2023-05-11T10:34:07.198Z,3.00
2023-05-11T10:36:35.438Z,4.90
2023-05-11T10:39:04.076Z,3.40
2023-05-11T10:41:32.253Z,4.20
2023-05-11T10:44:31.180Z,2.50
2023-05-11T10:47:11.746Z,3.00
2023-05-11T10:50:10.241Z,12.10
2023-05-11T10:53:21.868Z,4.30
2023-05-11T10:56:27.708Z,3.40
2023-05-11T10:59:22.875Z,3.50
2023-05-11T11:01:58.671Z,13.80
2023-05-11T11:04:42.668Z,6.30
2023-05-11T11:07:11.748Z,5.20
2023-05-11T11:10:00.722Z,8.60
2023-05-11T11:12:29.974Z,5.10
2023-05-11T11:15:03.245Z,3.10
2023-05-11T11:17:36.213Z,4.80
2023-05-11T11:20:10.284Z,6.30
2023-05-11T11:22:39.072Z,3.50
2023-05-11T11:25:12.081Z,2.80
2023-05-11T11:27:40.130Z,4.50
2023-05-11T11:30:29.246Z,10.60
2023-05-11T11:33:06.295Z,6.20
2023-05-11T11:35:40.666Z,3.50
2023-05-11T11:38:21.617Z,3.00
2023-05-11T11:40:54.292Z,3.60
2023-05-11T11:43:24.918Z,3.30
2023-05-11T11:45:54.393Z,6.00
2023-05-11T11:48:24.174Z,9.30
2023-05-11T11:51:14.120Z,4.20
2023-05-11T11:53:43.956Z,5.50
2023-05-11T11:56:15.166Z,4.10
2023-05-11T11:58:46.425Z,3.90
2023-05-11T12:01:20.244Z,3.00
2023-05-11T12:04:09.932Z,3.90
2023-05-11T12:06:40.639Z,6.00
2023-05-11T12:09:08.946Z,4.60
2023-05-11T12:11:38.553Z,4.60
2023-05-11T12:14:09.927Z,6.30
2023-05-11T12:16:38.219Z,6.30
2023-05-11T12:19:06.385Z,3.50
2023-05-11T12:21:34.723Z,2.80
2023-05-11T12:24:04.985Z,1.80
2023-05-11T12:26:34.759Z,3.90
2023-05-11T12:29:14.625Z,4.90
2023-05-11T12:31:45.980Z,21.70
2023-05-11T12:34:23.568Z,11.30
2023-05-11T12:36:54.391Z,37.40
2023-05-11T12:39:27.821Z,11.20
2023-05-11T12:41:57.110Z,9.50
2023-05-11T12:44:26.904Z,6.10
2023-05-11T12:46:55.475Z,2.10
2023-05-11T12:49:26.615Z,6.80
2023-05-11T12:51:55.478Z,5.70
2023-05-11T12:54:41.475Z,2.90
2023-05-11T12:57:29.801Z,4.00
2023-05-11T13:00:08.341Z,2.50
2023-05-11T13:02:44.948Z,4.90
2023-05-11T13:05:14.629Z,3.70
2023-05-11T13:07:44.527Z,5.50
2023-05-11T13:10:14.267Z,5.00
2023-05-11T13:12:52.337Z,3.50
2023-05-11T13:15:23.712Z,4.00
2023-05-11T13:18:00.781Z,7.10
2023-05-11T13:20:33.910Z,2.10
2023-05-11T13:23:16.070Z,2.40
2023-05-11T13:26:07.642Z,3.10
2023-05-11T13:28:35.906Z,4.00
2023-05-11T13:31:04.348Z,4.20
2023-05-11T13:33:32.630Z,3.20
2023-05-11T13:36:02.220Z,1.60
2023-05-11T13:38:30.369Z,3.90
2023-05-11T13:40:58.480Z,7.50
2023-05-11T13:43:26.934Z,6.10
2023-05-11T13:45:55.207Z,3.60
2023-05-11T13:48:23.291Z,6.30
2023-05-11T13:50:51.460Z,2.70
2023-05-11T13:53:19.581Z,6.80
2023-05-11T13:55:47.738Z,7.30
2023-05-11T13:58:16.046Z,5.90
2023-05-11T14:00:53.404Z,13.80
2023-05-11T14:03:33.598Z,8.30
2023-05-11T14:06:03.552Z,2.50
2023-05-11T14:08:31.826Z,8.10
2023-05-11T14:11:00.152Z,6.40
2023-05-11T14:13:28.493Z,4.80
2023-05-11T14:15:57.591Z,10.70
2023-05-11T14:18:26.382Z,3.10
2023-05-11T14:20:54.849Z,3.20
2023-05-11T14:23:22.928Z,4.40
2023-05-11T14:25:51.247Z,4.10
2023-05-11T14:28:19.502Z,2.20
2023-05-11T14:30:47.696Z,6.20
2023-05-11T14:33:16.565Z,5.10
2023-05-11T14:35:44.694Z,2.70
2023-05-11T14:38:12.925Z,6.50
2023-05-11T14:40:41.758Z,10.00
2023-05-11T14:43:10.075Z,4.30
2023-05-11T14:45:38.333Z,6.70
2023-05-11T14:48:07.342Z,4.60
2023-05-11T14:50:35.633Z,4.20
2023-05-11T14:53:03.920Z,5.70
2023-05-11T14:55:32.816Z,11.80
2023-05-11T14:58:04.218Z,9.90
2023-05-11T15:00:33.033Z,5.40
2023-05-11T15:03:01.180Z,5.80
2023-05-11T15:05:29.731Z,8.00
2023-05-11T15:07:59.743Z,7.20
2023-05-11T15:10:28.390Z,5.30
2023-05-11T15:12:56.547Z,3.90
2023-05-11T15:15:25.475Z,3.50
2023-05-11T15:17:54.237Z,3.10
2023-05-11T15:20:22.535Z,5.60
2023-05-11T15:22:50.670Z,15.40
2023-05-11T15:25:19.697Z,8.10
2023-05-11T15:27:48.074Z,6.60
2023-05-11T15:30:21.755Z,2.40
2023-05-11T15:32:50.546Z,3.10
2023-05-11T15:35:21.274Z,4.40
2023-05-11T15:37:49.696Z,3.70
2023-05-11T15:40:17.790Z,6.00
2023-05-11T15:42:46.131Z,8.10
2023-05-11T15:45:14.289Z,3.20
2023-05-11T15:47:42.641Z,3.10
2023-05-11T15:50:10.895Z,6.40
2023-05-11T15:52:43.353Z,3.90
2023-05-11T15:55:11.601Z,7.10
2023-05-11T15:57:39.869Z,3.80
2023-05-11T16:00:10.706Z,2.40
2023-05-11T16:02:38.990Z,11.20
2023-05-11T16:05:07.380Z,5.20
2023-05-11T16:07:35.527Z,4.90
2023-05-11T16:10:04.682Z,4.10
2023-05-11T16:12:37.986Z,8.00
2023-05-11T16:15:07.710Z,6.10
2023-05-11T16:17:43.759Z,5.60
2023-05-11T16:20:12.627Z,3.40
2023-05-11T16:22:42.681Z,4.60
2023-05-11T16:25:10.897Z,7.70
2023-05-11T16:27:49.246Z,6.30
2023-05-11T16:30:24.331Z,5.90
2023-05-11T16:33:02.536Z,3.00
2023-05-11T16:35:31.037Z,10.50
2023-05-11T16:38:00.012Z,5.30
2023-05-11T16:40:28.174Z,7.40
2023-05-11T16:43:03.606Z,13.80
2023-05-11T16:45:31.738Z,11.60
2023-05-11T16:48:00.317Z,24.00
2023-05-11T16:50:28.692Z,26.90
2023-05-11T16:53:33.338Z,18.00
2023-05-11T16:56:23.284Z,7.20
2023-05-11T16:58:53.238Z,8.50
2023-05-11T17:01:43.381Z,20.70
2023-05-11T17:04:12.588Z,34.50
2023-05-11T17:07:03.384Z,33.50
2023-05-11T17:09:31.532Z,93.70
2023-05-11T17:12:15.292Z,139.10
2023-05-11T17:14:43.513Z,225.60
2023-05-11T17:17:34.235Z,166.90
2023-05-11T17:20:07.797Z,127.00
2023-05-11T17:22:37.603Z,43.60
2023-05-11T17:25:06.402Z,48.60
2023-05-11T17:27:37.320Z,75.30
2023-05-11T17:30:06.441Z,45.10
2023-05-11T17:33:15.185Z,21.70
2023-05-11T17:35:43.944Z,19.90
2023-05-11T17:38:16.301Z,21.80
2023-05-11T17:40:45.230Z,21.40
2023-05-11T17:43:13.992Z,22.40
2023-05-11T17:45:42.570Z,14.00
2023-05-11T17:48:19.382Z,21.80
2023-05-11T17:50:47.621Z,31.90
2023-05-11T17:53:18.417Z,26.20
2023-05-11T17:55:46.700Z,29.70
2023-05-11T17:58:22.901Z,19.30
2023-05-11T18:00:51.080Z,14.10
2023-05-11T18:03:19.402Z,19.40
2023-05-11T18:05:49.085Z,24.60
2023-05-11T18:08:33.262Z,36.00
2023-05-11T18:11:30.452Z,25.70
2023-05-11T18:13:58.865Z,33.50
2023-05-11T18:16:49.814Z,21.90
2023-05-11T18:19:18.401Z,20.60
2023-05-11T18:22:07.374Z,23.40
2023-05-11T18:24:35.566Z,13.30
2023-05-11T18:27:45.869Z,20.80
2023-05-11T18:30:14.583Z,14.00
2023-05-11T18:33:03.485Z,14.70
2023-05-11T18:35:31.779Z,16.10
2023-05-11T18:38:20.007Z,24.90
2023-05-11T18:40:48.263Z,12.90
2023-05-11T18:43:16.403Z,14.60
2023-05-11T18:45:46.486Z,17.30
2023-05-11T18:48:22.746Z,12.60
2023-05-11T18:50:55.394Z,13.60
2023-05-11T18:53:33.622Z,12.20
2023-05-11T18:56:01.892Z,10.30
2023-05-11T18:58:46.665Z,13.50
2023-05-11T19:01:30.262Z,17.50
2023-05-11T19:04:01.493Z,20.70
2023-05-11T19:06:53.607Z,12.30
2023-05-11T19:09:23.002Z,14.50
2023-05-11T19:12:19.941Z,12.90
2023-05-11T19:14:48.313Z,13.70
2023-05-11T19:17:32.518Z,13.20
2023-05-11T19:20:01.068Z,11.90
2023-05-11T19:22:31.187Z,10.70
2023-05-11T19:25:00.813Z,7.80
2023-05-11T19:27:46.462Z,12.00
2023-05-11T19:30:14.732Z,11.00
2023-05-11T19:33:00.517Z,8.00
2023-05-11T19:35:28.890Z,12.80
2023-05-11T19:38:06.464Z,14.00
2023-05-11T19:40:46.108Z,23.90
2023-05-11T19:43:15.309Z,19.60
2023-05-11T19:45:45.596Z,14.30
2023-05-11T19:48:16.429Z,20.80
2023-05-11T19:50:44.649Z,14.80
2023-05-11T19:53:16.764Z,13.20
2023-05-11T19:55:47.761Z,11.30
2023-05-11T19:58:24.632Z,14.30
2023-05-11T20:00:52.714Z,20.80
2023-05-11T20:03:37.380Z,16.00
2023-05-11T20:06:05.872Z,15.10
2023-05-11T20:08:51.718Z,12.10
2023-05-11T20:11:20.018Z,10.10
2023-05-11T20:13:50.138Z,8.30
2023-05-11T20:16:18.465Z,7.30
2023-05-11T20:18:50.550Z,5.80
2023-05-11T20:21:18.813Z,8.60
2023-05-11T20:24:03.566Z,8.70
2023-05-11T20:26:32.052Z,15.60
2023-05-11T20:29:00.549Z,11.90
2023-05-11T20:31:29.290Z,8.10
2023-05-11T20:36:29.592Z,15.90
2023-05-11T20:38:57.743Z,8.60
2023-05-11T20:41:25.849Z,9.50
2023-05-11T20:44:13.994Z,7.20
2023-05-11T20:46:50.197Z,12.90
2023-05-11T20:49:30.760Z,10.80
2023-05-11T20:52:07.749Z,10.10
2023-05-11T20:54:36.183Z,6.60
2023-05-11T20:57:21.119Z,9.20
2023-05-11T21:02:36.834Z,6.90
2023-05-11T21:05:05.342Z,5.60
2023-05-11T21:07:53.537Z,6.80
2023-05-11T21:10:21.940Z,7.20
2023-05-11T21:12:58.204Z,7.00
2023-05-11T21:15:26.598Z,6.10
2023-05-11T21:17:54.926Z,7.50
2023-05-11T21:20:23.527Z,7.10
2023-05-11T21:22:52.870Z,9.50
2023-05-11T21:25:21.147Z,7.30
2023-05-11T21:27:57.140Z,7.50
2023-05-11T21:30:25.252Z,5.50
2023-05-11T21:32:55.716Z,5.90
2023-05-11T21:35:24.347Z,7.40
2023-05-11T21:38:12.707Z,13.00
2023-05-11T21:40:41.965Z,13.70
2023-05-11T21:43:14.660Z,8.50
2023-05-11T21:45:45.278Z,6.90
2023-05-11T21:48:15.794Z,8.50
2023-05-11T21:50:44.555Z,11.80
2023-05-11T21:53:29.185Z,8.40
2023-05-11T21:55:57.474Z,7.70
2023-05-11T21:58:34.512Z,6.20
2023-05-11T22:01:03.029Z,6.40
2023-05-11T22:03:48.266Z,10.70
2023-05-11T22:06:16.552Z,5.70
2023-05-11T22:09:01.357Z,8.60
2023-05-11T22:11:29.619Z,8.30
2023-05-11T22:14:14.455Z,5.10
2023-05-11T22:16:42.735Z,5.20
2023-05-11T22:19:27.562Z,5.60
2023-05-11T22:21:57.408Z,5.40
2023-05-11T22:24:34.970Z,7.10
2023-05-11T22:27:19.833Z,8.60
2023-05-11T22:29:48.253Z,5.00
2023-05-11T22:32:18.748Z,4.90
2023-05-11T22:34:46.916Z,6.90
2023-05-11T22:37:22.937Z,6.20
2023-05-11T22:39:51.116Z,5.80
2023-05-11T22:42:35.349Z,4.40
2023-05-11T22:45:03.754Z,5.50
2023-05-11T22:47:40.187Z,7.70
2023-05-11T22:50:12.003Z,6.10
2023-05-11T22:52:56.564Z,7.10
2023-05-11T22:55:25.430Z,7.70
2023-05-11T22:57:53.705Z,5.70
2023-05-11T23:00:22.350Z,6.00
2023-05-11T23:02:59.302Z,9.60
2023-05-11T23:05:27.561Z,6.00
2023-05-11T23:08:11.648Z,4.90
2023-05-11T23:10:39.802Z,3.30
2023-05-11T23:13:18.143Z,5.50
2023-05-11T23:15:46.241Z,6.70
2023-05-11T23:18:15.284Z,4.60
2023-05-11T23:20:43.527Z,6.70
2023-05-11T23:23:21.272Z,7.60
2023-05-11T23:25:49.383Z,6.80
2023-05-11T23:28:20.348Z,4.50
2023-05-11T23:30:48.503Z,6.30
2023-05-11T23:33:17.205Z,4.50
2023-05-11T23:35:45.338Z,4.20
2023-05-11T23:38:21.570Z,6.30
2023-05-11T23:40:49.760Z,4.70
2023-05-11T23:43:26.075Z,7.30
2023-05-11T23:45:57.603Z,5.20
2023-05-11T23:48:29.938Z,5.90
2023-05-11T23:50:58.169Z,7.10
2023-05-11T23:53:30.264Z,4.30
2023-05-11T23:55:58.651Z,4.40
2023-05-11T23:58:34.979Z,5.20
